createdAt,value
2019-03-01T01:03:50.911Z,12.56
2019-03-01T01:08:52.193Z,12.51
2019-03-01T01:13:53.461Z,12.47
2019-03-01T01:18:54.763Z,12.20
2019-03-01T01:23:56.074Z,12.14
2019-03-01T01:28:57.385Z,12.24
2019-03-01T02:30:59.383Z,12.37
2019-03-01T02:36:00.682Z,12.29
2019-03-01T02:41:01.969Z,12.27
2019-03-01T02:46:04.006Z,12.15
2019-03-01T02:51:05.327Z,12.31
2019-03-01T02:56:07.370Z,12.25
2019-03-01T04:04:31.245Z,11.16
2019-03-01T04:09:33.265Z,11.06
2019-03-01T04:14:34.562Z,11.22
2019-03-01T04:19:35.881Z,11.06
2019-03-01T04:24:37.164Z,10.80
2019-03-01T04:29:38.474Z,11.01
2019-03-01T05:31:41.604Z,11.23
2019-03-01T05:36:46.089Z,10.88
2019-03-01T05:41:47.458Z,10.57
2019-03-01T05:46:48.760Z,10.23
2019-03-01T05:51:50.217Z,9.84
2019-03-01T05:56:51.512Z,10.28
2019-03-01T07:05:16.546Z,10.15
2019-03-01T07:10:17.879Z,10.04
2019-03-01T07:15:19.266Z,9.96
2019-03-01T07:20:20.552Z,10.04
2019-03-01T07:25:21.906Z,9.77
2019-03-01T07:30:23.204Z,9.93
2019-03-01T08:32:27.453Z,9.04
2019-03-01T08:37:27.664Z,8.83
2019-03-01T08:42:28.935Z,9.02
2019-03-01T08:47:30.225Z,8.91
2019-03-01T08:52:31.509Z,9.07
2019-03-01T08:57:32.786Z,9.15
2019-03-01T10:05:55.380Z,9.73
2019-03-01T10:10:56.674Z,9.94
2019-03-01T10:15:58.701Z,9.87
2019-03-01T10:20:59.981Z,9.71
2019-03-01T10:26:01.282Z,9.62
2019-03-01T11:34:22.629Z,9.58
2019-03-01T11:39:23.929Z,9.49
2019-03-01T11:44:25.298Z,9.24
2019-03-01T11:49:26.578Z,9.38
2019-03-01T11:54:27.989Z,9.76
2019-03-01T11:59:29.293Z,9.81
2019-03-01T13:01:35.218Z,9.57
2019-03-01T13:06:39.914Z,9.63
2019-03-01T13:11:48.619Z,9.75
2019-03-01T13:16:52.330Z,9.96
2019-03-01T13:21:53.586Z,9.69
2019-03-01T13:26:54.871Z,9.61
2019-03-01T14:35:20.466Z,9.72
2019-03-01T14:40:22.642Z,9.51
2019-03-01T14:45:28.462Z,9.63
2019-03-01T14:50:33.307Z,9.81
2019-03-01T14:55:48.056Z,9.70
2019-03-01T16:04:11.935Z,9.87
2019-03-01T16:09:13.283Z,9.95
2019-03-01T16:14:14.566Z,9.63
2019-03-01T16:19:15.888Z,9.70
2019-03-01T16:24:17.216Z,9.74
2019-03-01T16:29:19.462Z,9.52
2019-03-01T16:34:20.848Z,9.32
2019-03-01T16:39:23.818Z,9.31
2019-03-01T16:44:24.669Z,9.56
2019-03-01T16:49:27.224Z,9.23
2019-03-01T16:54:27.420Z,9.72
2019-03-01T16:59:35.731Z,9.76
2019-03-01T17:04:39.405Z,9.69
2019-03-01T17:09:51.334Z,9.82
2019-03-01T17:14:50.645Z,9.80
2019-03-01T17:19:53.735Z,9.99
2019-03-01T17:25:02.293Z,9.68
2019-03-01T17:30:03.779Z,10.12
2019-03-01T17:35:06.384Z,9.89
2019-03-01T17:40:11.689Z,10.15
2019-03-01T17:45:20.990Z,9.77
2019-03-01T17:50:20.066Z,10.07
2019-03-01T17:55:25.949Z,9.72
2019-03-01T18:00:29.150Z,10.20
2019-03-01T18:05:30.514Z,9.91
2019-03-01T18:10:32.941Z,9.71
2019-03-01T18:15:33.958Z,9.62
2019-03-01T18:20:37.657Z,9.74
2019-03-01T18:25:36.611Z,9.66
2019-03-01T18:30:38.315Z,9.87
2019-03-01T18:35:39.678Z,10.10
2019-03-01T18:40:41.742Z,9.95
2019-03-01T18:45:43.822Z,9.90
2019-03-01T18:50:47.302Z,9.94
2019-03-01T18:55:49.626Z,9.81
2019-03-01T19:00:51.164Z,9.56
2019-03-01T19:05:53.494Z,9.55
2019-03-01T19:10:55.337Z,9.71
2019-03-01T19:15:59.641Z,9.75
2019-03-01T19:21:13.957Z,9.82
2019-03-01T19:26:19.187Z,9.64
2019-03-01T19:31:30.430Z,9.56
2019-03-01T19:36:35.591Z,9.83
2019-03-01T19:41:37.958Z,9.65
2019-03-01T19:46:47.544Z,9.65
2019-03-01T19:51:50.467Z,9.80
2019-03-01T19:56:52.046Z,9.63
2019-03-01T20:02:03.870Z,9.73
2019-03-01T20:07:06.768Z,9.70
2019-03-01T20:12:08.742Z,9.68
2019-03-01T20:17:12.840Z,10.10
2019-03-01T20:22:15.506Z,9.94
2019-03-01T20:27:17.159Z,9.88
2019-03-01T20:32:19.251Z,9.83
2019-03-01T20:37:20.734Z,9.84
2019-03-01T20:42:24.392Z,9.77
2019-03-01T20:47:23.482Z,9.70
2019-03-01T20:52:24.898Z,9.89
2019-03-01T20:57:27.126Z,9.35
2019-03-01T21:02:29.464Z,9.67
2019-03-01T21:07:31.620Z,9.73
2019-03-01T21:12:33.522Z,9.62
2019-03-01T21:17:34.326Z,9.30
2019-03-01T21:22:36.671Z,9.31
2019-03-01T21:27:37.145Z,9.32
2019-03-01T21:32:40.465Z,9.49
2019-03-01T21:37:41.930Z,9.33
2019-03-01T21:42:43.275Z,9.30
2019-03-01T21:47:47.715Z,9.23
2019-03-01T21:52:46.030Z,9.64
2019-03-01T21:57:47.350Z,8.97
2019-03-01T22:02:52.812Z,9.15
2019-03-01T22:07:50.815Z,9.20
2019-03-01T22:12:52.211Z,9.39
2019-03-01T22:17:53.650Z,9.34
2019-03-01T22:22:54.980Z,9.30
2019-03-01T22:27:57.709Z,9.35
2019-03-01T22:32:58.285Z,9.22
2019-03-01T22:38:04.758Z,9.48
2019-03-01T22:43:02.912Z,9.30
2019-03-01T22:48:04.936Z,9.46
2019-03-01T22:53:06.666Z,9.44
2019-03-01T22:58:09.266Z,9.45
2019-03-01T23:34:51.414Z,9.26
2019-03-01T23:39:52.973Z,9.22
2019-03-01T23:44:54.372Z,9.29
2019-03-01T23:49:58.993Z,9.36
2019-03-01T23:54:57.006Z,9.33
2019-03-01T23:59:58.749Z,9.50
